Time;durP1;ratioP1;P1;durP2;ratioP2;P2;SDS_P1;SDS_P2;PMS_P1;PMS_P2;Temp;Humidity;BMP_temperature;BMP_pressure;BME280_temperature;BME280_humidity;BME280_pressure;Samples;Min_cycle;Max_cycle;Signal;HPM_P1;HPM_P2
2021/12/18 00:04:02;;;;;;;57.08;51.55;;;;;;;6.31;99.43;103749.00;5015860;28;20484;-87
2021/12/18 00:06:30;;;;;;;56.95;51.30;;;;;;;6.59;99.83;103790.97;4969846;28;20049;-89
2021/12/18 00:08:59;;;;;;;57.95;52.03;;;;;;;6.30;100.00;103746.38;4988450;28;20010;-90
2021/12/18 00:11:25;;;;;;;56.88;51.30;;;;;;;6.25;99.90;103738.56;4982461;28;20043;-88
2021/12/18 00:13:52;;;;;;;56.35;50.85;;;;;;;6.44;100.00;103759.69;4967048;28;20046;-88
2021/12/18 00:16:18;;;;;;;55.83;50.35;;;;;;;6.56;99.57;103778.06;4966488;28;20039;-89
2021/12/18 00:18:45;;;;;;;58.10;52.13;;;;;;;6.46;99.59;103770.84;4967945;28;20065;-88
2021/12/18 00:21:17;;;;;;;56.67;51.05;;;;;;;6.33;99.87;103755.06;4975209;28;20015;-89
2021/12/18 00:23:42;;;;;;;56.33;50.72;;;;;;;6.23;100.00;103760.63;4972055;28;20029;-85
2021/12/18 00:26:08;;;;;;;54.87;49.67;;;;;;;6.38;100.00;103764.56;4970637;28;20086;-85
2021/12/18 00:28:33;;;;;;;55.40;50.20;;;;;;;6.41;100.00;103769.81;4974501;28;20023;-86
2021/12/18 00:30:59;;;;;;;58.33;52.37;;;;;;;6.34;100.00;103746.56;4970014;28;20019;-86
2021/12/18 00:33:24;;;;;;;55.20;50.10;;;;;;;6.34;100.00;103750.81;4961530;28;20034;-86
2021/12/18 00:35:49;;;;;;;54.73;49.57;;;;;;;6.54;100.00;103775.44;4963986;28;20031;-85
2021/12/18 00:38:15;;;;;;;57.80;51.73;;;;;;;6.32;99.68;103766.09;4965696;28;20025;-86
2021/12/18 00:40:46;;;;;;;56.40;50.70;;;;;;;6.49;99.20;103776.97;4960029;28;20029;-85
2021/12/18 00:43:28;;;;;;;55.05;49.85;;;;;;;6.38;99.33;103782.47;4982192;28;20014;-85
2021/12/18 00:46:04;;;;;;;57.42;51.65;;;;;;;6.46;99.73;103786.19;4967475;28;20015;-86
2021/12/18 00:48:33;;;;;;;56.25;50.83;;;;;;;6.58;99.53;103788.34;4965927;28;20098;-87
2021/12/18 00:51:11;;;;;;;55.50;50.22;;;;;;;6.45;99.46;103782.75;4966515;28;20047;-88
2021/12/18 00:57:12;;;;;;;55.25;50.03;;;;;;;6.40;100.00;103774.06;4989641;28;20029;-88
2021/12/18 00:59:37;;;;;;;55.05;49.88;;;;;;;6.53;99.81;103778.78;4952000;29;20031;-88
2021/12/18 01:02:05;;;;;;;56.10;50.72;;;;;;;6.55;100.00;103773.75;4961413;28;20030;-88
2021/12/18 01:04:34;;;;;;;55.07;49.97;;;;;;;6.50;99.78;103773.56;4958125;28;20095;-88
2021/12/18 01:06:59;;;;;;;56.20;50.63;;;;;;;6.57;100.00;103774.69;4960081;28;20031;-87
2021/12/18 01:09:49;;;;;;;55.53;50.13;;;;;;;6.50;99.13;103757.38;4961187;29;20035;-87
2021/12/18 01:12:15;;;;;;;54.58;49.58;;;;;;;6.46;98.90;103766.63;4974978;28;20071;-87
2021/12/18 01:14:53;;;;;;;54.70;49.60;;;;;;;6.48;99.49;103782.03;4969382;28;20098;-85
2021/12/18 01:22:44;;;;;;;55.72;50.50;;;;;;;6.50;100.00;103760.78;4989000;28;20058;-88
2021/12/18 01:28:27;;;;;;;55.55;50.20;;;;;;;6.33;99.90;103726.94;4946505;29;20039;-89
2021/12/18 01:30:53;;;;;;;55.42;50.00;;;;;;;6.37;99.64;103734.72;4962900;28;20042;-89
2021/12/18 01:33:18;;;;;;;55.50;50.10;;;;;;;6.48;99.54;103753.88;4966434;28;20035;-86
2021/12/18 01:35:43;;;;;;;56.60;50.97;;;;;;;6.61;99.84;103775.66;4946792;28;20026;-87
2021/12/18 01:38:10;;;;;;;55.90;50.40;;;;;;;6.54;100.00;103777.13;4948343;28;20022;-86
2021/12/18 01:41:09;;;;;;;55.55;50.22;;;;;;;6.67;99.92;103761.41;4949661;28;20054;-91
2021/12/18 01:51:14;;;;;;;57.30;51.50;;;;;;;6.51;100.00;103769.34;4973595;28;20013;-90
2021/12/18 01:53:03;;;;;;;58.55;52.20;;;;;;;6.53;99.59;103737.03;4966262;28;20046;-91
2021/12/18 01:55:54;;;;;;;57.70;51.95;;;;;;;6.50;100.00;103770.16;4982363;28;20022;-91
2021/12/18 01:58:24;;;;;;;60.05;53.03;;;;;;;6.31;100.00;103741.31;4964983;28;20034;-88
2021/12/18 02:00:51;;;;;;;56.72;50.97;;;;;;;6.31;100.00;103736.22;4958441;28;20026;-87
2021/12/18 02:03:25;;;;;;;59.67;53.33;;;;;;;6.52;100.00;103768.50;4950575;28;20540;-88
2021/12/18 02:05:52;;;;;;;57.90;51.83;;;;;;;6.46;100.00;103746.16;4979127;28;20062;-87
2021/12/18 02:08:19;;;;;;;59.40;53.28;;;;;;;6.54;100.00;103738.78;4964573;28;20042;-87
2021/12/18 02:10:49;;;;;;;57.67;51.67;;;;;;;6.38;99.88;103739.00;4964786;28;20087;-87
2021/12/18 02:21:28;;;;;;;55.22;49.90;;;;;;;6.54;100.00;103761.78;4973916;28;20057;-89
2021/12/18 02:23:54;;;;;;;54.30;49.08;;;;;;;6.58;99.80;103758.50;4948017;28;20038;-87
2021/12/18 02:26:21;;;;;;;55.95;50.45;;;;;;;6.62;99.94;103757.81;4949740;28;20023;-87
2021/12/18 02:28:51;;;;;;;56.53;50.65;;;;;;;6.57;100.00;103763.56;4949955;28;20046;-86
2021/12/18 02:31:17;;;;;;;57.47;51.50;;;;;;;6.50;99.92;103757.38;4946939;29;20034;-87
2021/12/18 02:33:46;;;;;;;55.17;49.70;;;;;;;6.53;100.00;103757.47;4947021;29;20031;-87
2021/12/18 02:36:22;;;;;;;55.65;49.95;;;;;;;6.55;100.00;103755.84;4947534;29;20034;-88
2021/12/18 02:39:20;;;;;;;56.07;50.40;;;;;;;6.52;100.00;103745.50;4947230;29;20023;-88
2021/12/18 02:41:56;;;;;;;;;;;;;;;6.64;100.00;103751.06;4945276;28;20315;-87
2021/12/18 02:44:22;;;;;;;54.65;49.53;;;;;;;6.52;100.00;103745.50;4951198;28;19910;-86
2021/12/18 02:46:48;;;;;;;54.83;49.42;;;;;;;6.61;100.00;103750.94;4950102;28;20065;-87
2021/12/18 02:49:15;;;;;;;54.20;49.03;;;;;;;6.60;100.00;103745.78;4949822;28;20031;-87
2021/12/18 02:51:40;;;;;;;55.45;50.08;;;;;;;6.54;100.00;103731.09;4950065;28;20026;-87
2021/12/18 02:54:06;;;;;;;54.50;49.43;;;;;;;6.63;100.00;103741.63;4951815;28;20173;-88
2021/12/18 02:56:32;;;;;;;53.87;48.97;;;;;;;6.62;100.00;103741.63;4951369;28;20353;-87
2021/12/18 02:59:04;;;;;;;54.55;49.40;;;;;;;6.56;100.00;103737.13;4981905;28;20011;-85
2021/12/18 03:01:33;;;;;;;55.17;49.92;;;;;;;6.51;100.00;103738.66;4990589;28;20011;-86
2021/12/18 03:04:03;;;;;;;55.58;50.13;;;;;;;6.45;100.00;103700.06;4970133;28;20022;-85
2021/12/18 03:06:34;;;;;;;57.03;51.10;;;;;;;6.54;100.00;103724.28;4968978;28;20042;-85
2021/12/18 03:20:32;;;;;;;54.55;49.33;;;;;;;6.35;100.00;103704.00;4977512;28;20034;-86
2021/12/18 03:25:20;;;;;;;53.83;48.85;;;;;;;6.49;100.00;103699.34;4995638;28;20056;-86
2021/12/18 03:27:46;;;;;;;55.47;50.03;;;;;;;6.56;100.00;103701.31;4977014;28;20090;-86
2021/12/18 03:30:12;;;;;;;53.33;48.53;;;;;;;6.44;100.00;103706.00;4990632;28;20120;-85
2021/12/18 03:32:37;;;;;;;54.40;49.22;;;;;;;6.53;100.00;103701.22;4991996;28;20478;-86
2021/12/18 03:35:04;;;;;;;54.33;49.33;;;;;;;6.60;100.00;103708.31;5001132;28;20042;-86
2021/12/18 03:37:29;;;;;;;55.85;50.22;;;;;;;6.51;100.00;103702.84;4975822;28;20026;-86
2021/12/18 03:39:54;;;;;;;55.23;49.63;;;;;;;6.54;100.00;103708.09;4993918;28;20064;-86
2021/12/18 03:42:20;;;;;;;55.10;49.67;;;;;;;6.59;100.00;103696.31;4982278;28;20033;-86
2021/12/18 03:44:45;;;;;;;55.63;50.00;;;;;;;6.28;100.00;103667.09;4985959;28;20042;-87
2021/12/18 03:47:11;;;;;;;54.63;49.47;;;;;;;6.41;100.00;103680.31;4982158;28;20052;-86
2021/12/18 03:49:37;;;;;;;54.97;49.75;;;;;;;6.49;100.00;103687.44;4973724;28;20030;-86
2021/12/18 03:52:02;;;;;;;55.50;50.30;;;;;;;6.58;100.00;103689.44;4964255;28;20023;-84
2021/12/18 03:54:28;;;;;;;54.20;49.13;;;;;;;6.61;100.00;103701.50;4987949;28;20026;-86
2021/12/18 03:56:53;;;;;;;56.43;50.70;;;;;;;6.53;100.00;103691.84;4981677;28;20033;-86
2021/12/18 03:59:18;;;;;;;54.10;49.13;;;;;;;6.55;100.00;103694.47;4982079;28;20081;-86
2021/12/18 04:01:44;;;;;;;54.87;49.57;;;;;;;6.53;100.00;103675.63;4985796;28;20022;-85
2021/12/18 04:04:09;;;;;;;54.40;49.47;;;;;;;6.54;100.00;103688.47;4982044;28;20058;-86
2021/12/18 04:06:38;;;;;;;55.10;49.47;;;;;;;6.57;100.00;103686.84;4991328;28;20034;-86
2021/12/18 04:09:03;;;;;;;54.20;49.13;;;;;;;6.53;100.00;103683.31;4984313;28;20047;-86
2021/12/18 04:11:28;;;;;;;53.37;48.43;;;;;;;6.50;100.00;103680.66;4991123;28;20033;-86
2021/12/18 04:13:54;;;;;;;54.47;49.50;;;;;;;6.44;100.00;103680.41;4981832;28;20015;-84
2021/12/18 04:16:19;;;;;;;53.10;48.30;;;;;;;6.44;100.00;103681.31;4986001;28;20026;-84
2021/12/18 04:18:44;;;;;;;55.73;50.20;;;;;;;6.61;100.00;103689.56;4976500;28;20038;-86
2021/12/18 04:21:10;;;;;;;54.37;49.33;;;;;;;6.63;100.00;103687.91;4973268;28;20026;-85
2021/12/18 04:23:35;;;;;;;53.80;48.90;;;;;;;6.70;100.00;103689.91;4977469;28;20625;-85
2021/12/18 04:26:00;;;;;;;55.50;50.17;;;;;;;6.74;100.00;103684.88;4976235;28;20474;-85
2021/12/18 04:28:26;;;;;;;54.33;49.23;;;;;;;6.62;100.00;103682.78;4976419;28;20081;-85
2021/12/18 04:30:52;;;;;;;55.17;49.90;;;;;;;6.57;100.00;103687.72;5000348;28;20030;-85
2021/12/18 04:33:17;;;;;;;53.90;49.05;;;;;;;6.57;100.00;103676.59;4978625;28;20682;-86
2021/12/18 04:35:43;;;;;;;53.90;48.97;;;;;;;6.69;100.00;103684.72;4992658;28;20022;-85
2021/12/18 04:38:08;;;;;;;56.13;50.57;;;;;;;6.55;99.24;103658.66;4984754;28;20030;-85
2021/12/18 04:40:34;;;;;;;54.80;49.63;;;;;;;6.74;99.51;103677.22;4988605;28;20090;-85
2021/12/18 04:43:01;;;;;;;53.90;49.00;;;;;;;6.78;98.81;103663.72;4984498;28;20011;-86
2021/12/18 04:45:26;;;;;;;54.30;49.20;;;;;;;6.68;99.56;103663.41;4997226;28;20027;-85
2021/12/18 04:47:51;;;;;;;54.33;49.33;;;;;;;6.69;99.17;103661.69;4978410;28;20040;-82
2021/12/18 04:50:17;;;;;;;54.07;49.10;;;;;;;6.75;99.52;103667.03;5009607;28;20094;-84
2021/12/18 04:52:42;;;;;;;54.37;49.30;;;;;;;6.65;100.00;103664.94;4986512;28;20015;-84
2021/12/18 04:55:07;;;;;;;54.10;49.00;;;;;;;6.60;100.00;103661.38;4984395;28;20081;-83
2021/12/18 04:57:33;;;;;;;53.90;49.07;;;;;;;6.64;100.00;103653.88;4981190;28;20038;-85
2021/12/18 04:59:58;;;;;;;54.03;48.90;;;;;;;6.76;100.00;103661.09;4988066;28;20093;-86
2021/12/18 05:02:34;;;;;;;54.03;49.13;;;;;;;6.67;100.00;103650.56;4994922;28;20030;-86
2021/12/18 05:04:59;;;;;;;54.65;49.55;;;;;;;6.71;100.00;103650.72;4980983;28;20022;-85
2021/12/18 05:07:26;;;;;;;55.60;50.30;;;;;;;6.69;100.00;103654.88;4989517;28;20042;-85
2021/12/18 05:09:52;;;;;;;56.42;50.95;;;;;;;6.53;100.00;103643.25;4985477;28;20014;-84
2021/12/18 05:12:17;;;;;;;55.97;50.57;;;;;;;6.58;100.00;103642.56;4995261;28;20031;-85
2021/12/18 05:14:42;;;;;;;55.37;50.23;;;;;;;6.59;100.00;103641.75;4979115;28;20111;-85
2021/12/18 05:17:08;;;;;;;57.63;52.17;;;;;;;6.64;100.00;103647.88;4993929;28;20022;-85
2021/12/18 05:19:33;;;;;;;56.10;50.60;;;;;;;6.67;100.00;103653.97;4985309;28;20041;-85
2021/12/18 05:21:59;;;;;;;54.70;49.63;;;;;;;6.59;100.00;103659.66;4985212;28;20014;-84
2021/12/18 05:24:24;;;;;;;55.83;50.43;;;;;;;6.57;100.00;103636.59;4982891;28;20011;-85
2021/12/18 05:26:49;;;;;;;54.70;49.60;;;;;;;6.40;100.00;103623.19;4991661;28;20018;-85
2021/12/18 05:29:14;;;;;;;55.47;50.17;;;;;;;6.52;100.00;103631.31;4972838;28;20030;-86
2021/12/18 05:31:40;;;;;;;54.70;49.43;;;;;;;6.53;100.00;103644.94;4989043;28;20033;-86
2021/12/18 05:34:05;;;;;;;56.00;50.50;;;;;;;6.50;100.00;103632.91;4989139;28;20034;-85
2021/12/18 05:37:02;;;;;;;54.70;49.33;;;;;;;6.63;100.00;103652.09;4978864;28;20050;-86
2021/12/18 05:39:23;;;;;;;53.45;48.60;;;;;;;6.47;100.00;103644.72;4979104;28;20050;-86
2021/12/18 05:41:50;;;;;;;53.92;49.10;;;;;;;6.43;100.00;103653.13;4974386;28;20022;-86
2021/12/18 05:44:17;;;;;;;55.47;49.95;;;;;;;6.43;100.00;103653.13;4976823;28;20048;-86
2021/12/18 05:46:43;;;;;;;53.55;48.58;;;;;;;6.25;100.00;103637.97;4987359;28;20128;-86
2021/12/18 05:49:08;;;;;;;52.92;48.25;;;;;;;6.50;100.00;103645.69;4990417;28;20089;-85
2021/12/18 05:51:34;;;;;;;54.10;48.87;;;;;;;6.40;99.50;103638.53;4987103;28;20050;-84
2021/12/18 05:53:59;;;;;;;52.73;48.03;;;;;;;6.47;98.87;103644.72;4966778;28;20029;-84
2021/12/18 05:56:24;;;;;;;54.07;48.90;;;;;;;6.44;99.46;103625.06;4972655;28;20026;-85
2021/12/18 05:58:50;;;;;;;53.53;48.60;;;;;;;6.47;99.56;103644.72;4974225;28;20042;-83
2021/12/18 06:01:15;;;;;;;53.57;48.43;;;;;;;6.42;99.79;103634.34;4994320;28;20030;-87
2021/12/18 06:03:42;;;;;;;54.27;49.17;;;;;;;6.50;99.89;103639.72;4985625;28;20018;-85
2021/12/18 06:06:07;;;;;;;52.13;47.53;;;;;;;6.35;100.00;103640.94;4991175;28;20429;-85
2021/12/18 06:08:34;;;;;;;52.13;47.60;;;;;;;6.26;100.00;103649.97;4969934;28;20035;-86
2021/12/18 06:11:06;;;;;;;53.05;48.13;;;;;;;6.43;99.94;103656.56;4981076;28;20030;-86
2021/12/18 06:13:31;;;;;;;52.03;47.53;;;;;;;6.46;99.92;103658.31;4974800;28;20469;-86
2021/12/18 06:15:56;;;;;;;51.43;47.10;;;;;;;6.37;99.69;103637.56;4979663;28;20042;-85
2021/12/18 06:18:21;;;;;;;52.47;47.83;;;;;;;6.51;99.59;103646.59;4968743;28;20046;-86
2021/12/18 06:20:47;;;;;;;52.47;47.87;;;;;;;6.43;99.06;103648.03;4989501;28;20037;-86
2021/12/18 06:23:12;;;;;;;51.60;47.10;;;;;;;6.42;98.72;103647.13;4974458;28;20033;-86
2021/12/18 06:25:37;;;;;;;51.40;47.10;;;;;;;6.31;98.18;103639.06;4965498;28;20031;-86
2021/12/18 06:28:03;;;;;;;54.87;49.43;;;;;;;6.27;98.18;103626.16;4980150;28;20024;-87
2021/12/18 06:30:28;;;;;;;51.93;47.47;;;;;;;6.50;97.30;103649.97;5002314;28;20049;-87
2021/12/18 06:32:54;;;;;;;52.17;47.63;;;;;;;6.42;97.05;103636.91;5000322;28;20029;-85
2021/12/18 06:35:19;;;;;;;51.80;47.27;;;;;;;6.37;97.49;103632.47;5006200;28;20049;-85
2021/12/18 06:37:44;;;;;;;52.07;47.57;;;;;;;6.34;97.34;103634.06;4990471;28;20046;-85
2021/12/18 06:40:10;;;;;;;52.43;47.70;;;;;;;6.27;97.35;103626.16;4999519;28;20025;-85
2021/12/18 06:42:36;;;;;;;51.13;46.80;;;;;;;6.37;96.96;103632.47;5014941;28;20069;-84
2021/12/18 06:45:01;;;;;;;52.23;47.70;;;;;;;6.47;96.35;103640.47;4988757;28;20031;-84
2021/12/18 06:47:27;;;;;;;51.83;47.37;;;;;;;6.38;96.65;103645.28;4962470;28;20027;-84
2021/12/18 06:49:52;;;;;;;53.33;48.40;;;;;;;6.45;95.86;103646.38;4980003;28;20339;-83
2021/12/18 06:52:17;;;;;;;51.90;47.30;;;;;;;6.46;95.97;103648.09;4973968;28;20022;-83
2021/12/18 06:54:43;;;;;;;52.30;47.63;;;;;;;6.34;96.87;103649.41;4973786;28;20037;-84
2021/12/18 06:57:08;;;;;;;52.70;47.80;;;;;;;6.39;96.25;103644.47;4975946;28;20046;-83
2021/12/18 06:59:33;;;;;;;52.23;47.73;;;;;;;6.33;95.92;103642.56;4983385;28;20022;-82
2021/12/18 07:01:58;;;;;;;51.50;47.23;;;;;;;6.41;96.48;103649.63;5004217;28;20045;-84
2021/12/18 07:04:24;;;;;;;52.63;48.03;;;;;;;6.35;96.06;103646.03;4992160;28;20010;-85
2021/12/18 07:06:51;;;;;;;52.95;48.22;;;;;;;6.11;96.81;103620.47;5004630;28;20053;-85
2021/12/18 07:09:17;;;;;;;52.75;48.05;;;;;;;6.37;96.98;103647.78;4998228;28;20030;-85
2021/12/18 07:11:44;;;;;;;54.63;49.50;;;;;;;6.29;97.88;103644.97;5011107;28;20069;-85
2021/12/18 07:14:09;;;;;;;54.20;49.05;;;;;;;6.37;97.94;103640.97;4993325;28;21896;-85
2021/12/18 07:16:34;;;;;;;53.10;48.43;;;;;;;6.28;97.51;103636.44;4967656;28;20118;-84
2021/12/18 07:19:00;;;;;;;53.77;48.83;;;;;;;6.39;97.86;103636.78;4980491;28;20026;-85
2021/12/18 07:21:25;;;;;;;55.43;50.03;;;;;;;6.27;97.80;103626.16;4997733;28;20030;-84
2021/12/18 07:23:50;;;;;;;54.13;49.00;;;;;;;6.36;97.76;103641.78;4989170;28;20033;-82
2021/12/18 07:26:16;;;;;;;55.57;50.37;;;;;;;6.33;98.53;103631.44;4980157;28;20133;-84
2021/12/18 07:28:41;;;;;;;55.45;50.10;;;;;;;6.44;98.66;103635.28;4979704;28;20032;-84
2021/12/18 07:31:07;;;;;;;54.10;49.07;;;;;;;6.30;98.55;103628.78;4983998;28;20038;-85
2021/12/18 07:33:35;;;;;;;53.83;49.03;;;;;;;6.39;98.86;103646.16;4985455;28;20027;-85
2021/12/18 07:36:00;;;;;;;54.08;49.05;;;;;;;6.33;98.57;103640.00;4982825;28;20014;-84
2021/12/18 07:38:25;;;;;;;53.93;49.00;;;;;;;6.14;99.34;103623.16;4984602;28;20014;-85
2021/12/18 07:40:51;;;;;;;54.23;49.23;;;;;;;6.44;99.64;103644.63;4994921;28;20014;-83
2021/12/18 07:43:16;;;;;;;54.47;49.50;;;;;;;6.43;99.10;103642.91;5005890;28;20034;-84
2021/12/18 07:45:41;;;;;;;55.57;50.33;;;;;;;6.26;98.97;103620.16;5001803;28;20038;-84
2021/12/18 07:48:07;;;;;;;56.63;50.87;;;;;;;6.25;99.26;103643.09;4991600;28;20034;-85
2021/12/18 07:50:32;;;;;;;55.30;49.77;;;;;;;6.17;100.00;103620.69;4990098;28;20052;-86
2021/12/18 07:52:58;;;;;;;55.38;50.15;;;;;;;6.33;100.00;103650.25;4998029;28;20029;-84
2021/12/18 07:55:24;;;;;;;56.53;50.97;;;;;;;6.27;99.86;103626.16;4986166;28;20038;-84
2021/12/18 07:57:51;;;;;;;55.10;49.90;;;;;;;6.41;99.68;103640.28;4982182;28;20018;-83
2021/12/18 08:00:17;;;;;;;54.08;49.15;;;;;;;6.46;99.41;103642.97;4980913;28;20045;-84
2021/12/18 08:02:43;;;;;;;55.00;49.70;;;;;;;6.38;99.43;103644.41;4985194;28;20018;-84
2021/12/18 08:05:08;;;;;;;55.67;50.27;;;;;;;6.49;99.90;103638.88;4982540;28;20286;-84
2021/12/18 08:07:35;;;;;;;57.63;51.60;;;;;;;6.53;99.13;103645.81;4995281;28;20133;-84
2021/12/18 08:10:00;;;;;;;;;;;;;;;6.48;99.03;103636.25;4987448;28;20026;-84
2021/12/18 08:12:29;;;;;;;53.90;48.78;;;;;;;6.40;98.71;103640.25;4974145;28;19917;-84
2021/12/18 08:14:55;;;;;;;57.80;51.70;;;;;;;6.46;97.94;103622.53;4975514;28;20018;-83
2021/12/18 08:17:22;;;;;;;54.25;49.28;;;;;;;6.44;98.09;103624.16;4960733;28;20026;-84
2021/12/18 08:19:48;;;;;;;54.03;49.03;;;;;;;6.47;97.90;103630.25;5009065;28;20026;-84
2021/12/18 08:22:13;;;;;;;53.63;48.73;;;;;;;6.46;97.12;103636.19;5009090;28;20065;-85
2021/12/18 08:24:38;;;;;;;54.67;49.37;;;;;;;6.50;97.73;103626.94;4981339;28;20033;-84
2021/12/18 08:27:04;;;;;;;53.43;48.63;;;;;;;6.50;97.34;103632.06;4985744;28;20037;-85
2021/12/18 08:29:29;;;;;;;51.97;47.67;;;;;;;6.56;96.97;103624.59;4987466;28;20033;-85
2021/12/18 08:31:55;;;;;;;55.23;50.00;;;;;;;6.56;97.12;103639.94;4978718;28;20685;-86
2021/12/18 08:34:21;;;;;;;53.23;48.43;;;;;;;6.61;97.36;103633.28;4988540;28;20036;-87
2021/12/18 08:36:46;;;;;;;53.95;48.78;;;;;;;6.56;98.24;103621.19;4994926;28;20061;-87
2021/12/18 08:39:12;;;;;;;53.35;48.55;;;;;;;6.60;98.51;103626.47;4972919;28;20035;-87
2021/12/18 08:41:38;;;;;;;53.33;48.53;;;;;;;6.47;98.31;103606.38;4990735;28;20041;-87
2021/12/18 08:44:04;;;;;;;54.10;49.28;;;;;;;6.51;99.09;103615.91;4990637;28;20038;-86
2021/12/18 08:46:30;;;;;;;55.23;49.90;;;;;;;6.54;98.83;103618.56;4992331;28;20121;-86
2021/12/18 08:48:55;;;;;;;53.93;49.00;;;;;;;6.72;99.35;103631.09;5003960;28;20026;-86
2021/12/18 08:51:21;;;;;;;59.03;52.60;;;;;;;6.53;99.23;103627.06;4984133;28;20034;-86
2021/12/18 08:53:46;;;;;;;56.90;51.20;;;;;;;6.57;99.48;103625.47;5001483;28;20053;-85
2021/12/18 08:56:11;;;;;;;57.43;51.43;;;;;;;6.33;98.96;103565.88;4986570;28;20037;-86
2021/12/18 08:58:37;;;;;;;55.23;50.07;;;;;;;6.44;98.81;103594.38;4980928;28;20045;-86
2021/12/18 09:01:02;;;;;;;53.83;49.03;;;;;;;6.46;98.26;103599.50;4990838;28;20057;-86
2021/12/18 09:03:28;;;;;;;54.50;49.60;;;;;;;6.67;98.49;103619.84;4992786;28;20101;-86
2021/12/18 09:05:54;;;;;;;54.60;49.67;;;;;;;6.65;97.77;103609.56;4992168;28;20294;-86
2021/12/18 09:08:19;;;;;;;55.53;50.17;;;;;;;6.70;97.08;103622.53;4993040;28;20080;-86
2021/12/18 09:10:45;;;;;;;53.40;48.60;;;;;;;6.61;97.22;103617.94;4986559;28;20061;-86
2021/12/18 09:13:10;;;;;;;53.77;48.87;;;;;;;6.49;97.98;103602.16;4988804;28;20045;-87
2021/12/18 09:15:36;;;;;;;55.40;50.10;;;;;;;6.31;98.02;103571.75;4999593;28;20049;-85
2021/12/18 09:18:01;;;;;;;55.70;50.33;;;;;;;6.56;98.50;103611.81;4998040;28;20049;-86
2021/12/18 09:20:26;;;;;;;54.13;49.23;;;;;;;6.57;98.99;103623.78;5013096;23;20046;-88
2021/12/18 09:22:52;;;;;;;54.23;49.27;;;;;;;6.55;98.52;103604.94;4972852;28;20019;-88
2021/12/18 09:25:18;;;;;;;55.13;50.03;;;;;;;6.68;98.62;103619.91;4970814;28;20054;-87
2021/12/18 09:27:47;;;;;;;55.17;49.92;;;;;;;6.56;98.09;103598.16;4955852;28;20026;-87
2021/12/18 09:30:18;;;;;;;54.88;49.78;;;;;;;6.55;98.00;103589.59;4963104;28;20033;-86
2021/12/18 09:33:00;;;;;;;53.50;48.63;;;;;;;6.72;97.19;103620.88;4959745;28;20517;-87
2021/12/18 09:36:11;;;;;;;54.50;49.40;;;;;;;6.57;96.82;103580.31;4951458;29;20047;-87
2021/12/18 09:38:37;;;;;;;55.50;49.97;;;;;;;6.53;97.60;103598.91;4941859;28;20050;-88
2021/12/18 09:41:03;;;;;;;52.57;47.97;;;;;;;6.62;97.27;103609.47;4948252;28;20466;-88
2021/12/18 09:43:29;;;;;;;52.55;47.95;;;;;;;6.67;97.30;103584.03;4947691;28;20023;-88
2021/12/18 09:46:04;;;;;;;52.95;48.22;;;;;;;6.71;98.01;103606.34;4964574;28;20030;-87
2021/12/18 09:48:29;;;;;;;53.70;48.75;;;;;;;6.47;98.35;103548.41;4959349;28;20367;-87
2021/12/18 09:50:57;;;;;;;52.73;48.07;;;;;;;6.60;98.88;103575.31;4947368;28;20036;-87
2021/12/18 09:53:25;;;;;;;53.42;48.58;;;;;;;6.46;99.10;103561.16;4964456;28;20038;-88
2021/12/18 09:55:53;;;;;;;52.75;47.95;;;;;;;6.64;99.49;103597.59;4946681;28;20061;-87
2021/12/18 09:58:18;;;;;;;56.70;51.03;;;;;;;7.41;100.00;103605.19;4948854;28;20054;-88
2021/12/18 10:00:44;;;;;;;53.77;48.80;;;;;;;7.86;99.13;103577.41;4964138;28;20034;-87
2021/12/18 10:03:09;;;;;;;52.83;48.23;;;;;;;7.88;96.72;103592.03;4966681;28;20023;-88
2021/12/18 10:05:35;;;;;;;54.67;49.40;;;;;;;7.73;96.30;103571.97;4946822;28;20335;-88
2021/12/18 10:08:14;;;;;;;54.83;49.42;;;;;;;7.74;97.06;103577.94;4965678;28;20561;-88
2021/12/18 10:10:58;;;;;;;54.92;49.75;;;;;;;7.89;97.16;103551.88;4960703;28;20121;-86
2021/12/18 10:13:24;;;;;;;55.58;50.13;;;;;;;7.57;94.52;103544.16;4950764;28;20066;-88
2021/12/18 10:16:14;;;;;;;52.97;48.22;;;;;;;8.15;96.36;103581.66;4960519;28;20022;-89
2021/12/18 10:18:40;;;;;;;53.83;48.80;;;;;;;7.99;93.48;103582.94;4961046;28;20094;-86
2021/12/18 10:21:18;;;;;;;56.90;51.17;;;;;;;8.24;93.96;103544.25;4977875;28;20046;-88
2021/12/18 10:23:45;;;;;;;55.20;50.00;;;;;;;8.46;92.39;103555.97;4964041;28;20099;-87
2021/12/18 10:26:42;;;;;;;54.45;49.35;;;;;;;7.63;93.86;103552.91;4967968;28;20082;-86
2021/12/18 10:29:38;;;;;;;55.25;49.88;;;;;;;7.52;96.21;103561.09;4963199;28;20032;-88
2021/12/18 10:32:22;;;;;;;56.13;50.28;;;;;;;7.05;96.44;103516.19;4944936;28;20093;-88
2021/12/18 10:35:00;;;;;;;55.08;49.92;;;;;;;6.87;97.43;103497.69;4967124;28;20118;-88
2021/12/18 10:37:32;;;;;;;57.80;51.88;;;;;;;7.24;96.81;103552.59;4945910;29;20035;-87
2021/12/18 10:40:05;;;;;;;56.35;50.97;;;;;;;7.07;96.93;103534.13;4959563;28;20019;-88
2021/12/18 10:42:34;;;;;;;57.83;51.92;;;;;;;7.04;97.74;103527.22;4972730;28;20053;-88
2021/12/18 10:45:27;;;;;;;57.28;51.78;;;;;;;7.06;97.98;103529.84;4953293;28;20024;-89
2021/12/18 10:48:03;;;;;;;58.58;52.45;;;;;;;7.30;97.35;103539.97;4970421;28;20042;-89
2021/12/18 10:50:53;;;;;;;55.67;50.42;;;;;;;7.05;97.39;103516.19;4956138;28;20059;-87
2021/12/18 10:53:19;;;;;;;57.88;51.88;;;;;;;7.05;97.70;103494.84;4950386;29;20031;-88
2021/12/18 10:55:46;;;;;;;;;;;;;;;7.32;97.58;103532.31;4976548;28;20050;-88
2021/12/18 10:58:15;;;;;;;58.73;53.23;;;;;;;7.24;96.72;103498.81;4958896;28;19921;-88
2021/12/18 11:09:27;;;;;;;79.63;60.50;;;;;;;7.44;97.58;103518.19;5941266;23;20424;-88
2021/12/18 11:15:12;;;;;;;57.83;51.88;;;;;;;7.52;96.58;103510.72;4986735;28;20116;-88
2021/12/18 11:17:37;;;;;;;59.38;53.55;;;;;;;7.36;97.70;103503.41;4983901;28;20038;-92
2021/12/18 11:20:03;;;;;;;57.73;51.97;;;;;;;7.45;97.53;103499.44;4958755;29;20039;-89
2021/12/18 11:22:29;;;;;;;58.78;52.78;;;;;;;7.37;97.67;103479.56;4964649;28;20027;-88
2021/12/18 11:25:01;;;;;;;61.13;54.73;;;;;;;7.44;97.67;103495.16;4974915;28;20038;-88
2021/12/18 11:27:43;;;;;;;59.95;53.55;;;;;;;7.53;97.28;103494.53;4974321;28;20031;-89
2021/12/18 11:30:10;;;;;;;65.18;53.70;;;;;;;7.54;96.42;103473.22;4981373;28;20050;-89
2021/12/18 11:32:41;;;;;;;58.97;52.70;;;;;;;7.55;96.22;103486.88;4965812;28;20117;-89
2021/12/18 11:35:10;;;;;;;56.92;51.15;;;;;;;7.44;96.99;103461.84;4949940;29;20031;-88
2021/12/18 11:37:59;;;;;;;58.83;52.65;;;;;;;7.43;97.12;103469.50;4970894;28;20034;-87
2021/12/18 11:40:27;;;;;;;59.45;53.17;;;;;;;7.78;95.57;103477.28;4978645;28;20183;-86
2021/12/18 11:42:53;;;;;;;60.80;53.17;;;;;;;7.59;96.30;103451.16;4973800;28;20120;-88
2021/12/18 11:45:18;;;;;;;59.13;52.63;;;;;;;7.59;96.52;103460.53;4962676;28;20068;-89
2021/12/18 11:47:45;;;;;;;58.70;52.07;;;;;;;7.65;96.26;103476.06;4960072;28;20027;-90
2021/12/18 11:50:19;;;;;;;59.22;51.60;;;;;;;7.76;95.41;103468.66;4960376;28;20414;-89
2021/12/18 11:53:00;;;;;;;58.67;52.63;;;;;;;7.75;95.14;103460.13;4977692;28;20026;-91
2021/12/18 11:55:29;;;;;;;60.38;52.20;;;;;;;7.66;95.50;103441.09;4975493;28;20022;-90
2021/12/18 11:57:58;;;;;;;59.63;53.40;;;;;;;7.78;95.86;103452.53;4975287;28;20033;-88
2021/12/18 12:00:32;;;;;;;58.70;52.70;;;;;;;7.76;95.48;103453.28;4973927;28;20030;-90
2021/12/18 12:02:59;;;;;;;58.05;51.88;;;;;;;7.66;95.61;103436.81;4989125;28;20133;-88
2021/12/18 12:05:35;;;;;;;59.75;51.65;;;;;;;7.82;96.60;103458.59;4972063;28;20057;-89
2021/12/18 12:08:34;;;;;;;59.15;52.28;;;;;;;7.82;95.89;103454.31;4966880;28;20029;-88
2021/12/18 12:11:18;;;;;;;59.40;52.90;;;;;;;7.73;95.41;103442.97;4955790;28;20031;-89
2021/12/18 12:14:08;;;;;;;58.80;52.47;;;;;;;7.79;96.03;103449.16;4963591;28;20038;-90
2021/12/18 12:16:43;;;;;;;59.00;52.50;;;;;;;7.87;95.64;103451.03;4971457;28;20027;-89